Letterkenny, Ireland
Current Conditions -  °F | °C
As of 4:50 PM on Friday 24 Oct 2014 (Local Time) from EGAE Reporting Station
Rain Showers Rain Showers  
Wind Chill:   Ceiling: 2500
Heat Index:   Visibility: 5mi
Dew Point:   Wind: 23mph
Humidity: 87%   Direction: 230°SW
Pressure: 29.71"   Gusts: NA
Location:  54.94°N, 7.74°W
Report Text: EGAE 241650Z 23020KT 8000 SHRA FEW013 BKN025 09/07 Q1006
Loading
Personal Weather Stations






























Interactive Weather Map
Tropical Storm Tracking
New forecast layout! Learn more

10-Day Weather Forecast

Advertisements
Track Severe Weather on mobile